Time;durP1;ratioP1;P1;durP2;ratioP2;P2;SDS_P1;SDS_P2;PMS_P1;PMS_P2;Temp;Humidity;BMP_temperature;BMP_pressure;BME280_temperature;BME280_humidity;BME280_pressure;Samples;Min_cycle;Max_cycle;Signal;HPM_P1;HPM_P2
2021/05/16 00:00:28;;;;;;;4.53;1.37;;;16.80;96.40;;;17.28;50.39;99818.56;4888151;28;98366;-50
2021/05/16 00:02:54;;;;;;;7.47;2.23;;;16.80;96.10;;;17.40;50.41;99812.31;4894776;28;98548;-53
2021/05/16 00:05:24;;;;;;;9.07;2.43;;;17.00;95.80;;;17.26;49.70;99815.19;4868251;28;99314;-51
2021/05/16 00:07:51;;;;;;;6.30;2.03;;;16.90;95.50;;;17.30;48.95;99816.63;4895532;28;98630;-51
2021/05/16 00:10:19;;;;;;;8.73;2.27;;;16.90;95.30;;;17.34;49.24;99807.44;4891883;28;99635;-53
2021/05/16 00:12:46;;;;;;;8.43;2.37;;;16.90;95.90;;;17.32;49.63;99808.53;4893490;28;98422;-49
2021/05/16 00:15:16;;;;;;;2.27;0.80;;;16.80;95.70;;;17.35;50.54;99809.13;4872631;28;100954;-56
2021/05/16 00:17:42;;;;;;;9.70;2.43;;;16.90;96.40;;;17.30;49.53;99811.31;4890040;28;98007;-53
2021/05/16 00:20:17;;;;;;;9.67;2.03;;;16.80;95.30;;;17.37;50.85;99807.22;4892912;28;98260;-51
2021/05/16 00:22:43;;;;;;;7.40;1.93;;;16.80;96.40;;;17.44;50.54;99807.59;4877767;28;103255;-61
2021/05/16 00:25:14;;;;;;;7.80;1.77;;;17.00;95.90;;;17.44;50.26;99802.25;4891435;28;97658;-53
2021/05/16 00:27:41;;;;;;;6.77;1.80;;;17.00;95.60;;;17.35;50.79;99803.78;4886212;28;98387;-53
2021/05/16 00:30:11;;;;;;;9.33;2.33;;;16.90;96.40;;;17.37;49.07;99807.22;4895137;28;100007;-55
2021/05/16 00:32:37;;;;;;;5.00;2.00;;;16.90;95.20;;;17.39;49.35;99807.94;4873072;28;102040;-58
2021/05/16 00:35:06;;;;;;;9.40;2.93;;;16.90;95.50;;;17.31;49.10;99807.66;4876589;28;98774;-57
2021/05/16 00:37:32;;;;;;;8.07;2.40;;;16.90;95.40;;;17.27;48.58;99794.72;4883884;28;98288;-56
2021/05/16 00:39:58;;;;;;;1.80;1.20;;;16.80;95.50;;;17.30;50.42;99800.66;4894085;28;109779;-54
2021/05/16 00:42:24;;;;;;;6.07;1.33;;;16.80;96.10;;;17.24;50.31;99801.13;4872396;28;98831;-59
2021/05/16 00:45:13;;;;;;;9.00;2.97;;;16.70;96.10;;;17.23;50.12;99800.28;4897254;28;98368;-57
2021/05/16 00:47:46;;;;;;;8.70;2.53;;;16.70;95.40;;;17.17;49.70;99794.56;4868106;28;97797;-49
2021/05/16 00:50:13;;;;;;;11.97;2.77;;;16.70;95.20;;;17.25;50.54;99801.00;4874264;28;102316;-58
2021/05/16 00:52:40;;;;;;;10.93;2.40;;;16.80;95.90;;;17.22;50.66;99797.75;4873621;28;97667;-61
2021/05/16 00:55:08;;;;;;;7.07;2.20;;;16.70;95.70;;;17.11;49.25;99805.69;4877157;28;98606;-53
2021/05/16 00:57:34;;;;;;;8.63;2.83;;;16.60;95.40;;;16.98;48.86;99799.59;4871855;28;97563;-61
2021/05/16 01:00:00;;;;;;;7.40;2.50;;;16.50;95.30;;;17.06;51.06;99798.03;4874582;28;98432;-55
2021/05/16 01:02:26;;;;;;;10.17;3.00;;;16.50;96.20;;;16.97;48.88;99803.22;4855266;28;97450;-58
2021/05/16 01:04:51;;;;;;;11.73;2.73;;;16.50;95.50;;;16.98;49.54;99803.09;4870516;28;100327;-57
2021/05/16 01:07:18;;;;;;;7.80;2.50;;;16.50;95.60;;;17.05;51.08;99800.81;4870445;28;105777;-56
2021/05/16 01:09:44;;;;;;;9.73;2.60;;;16.50;96.50;;;17.05;49.37;99795.47;4867826;28;98439;-56
2021/05/16 01:12:12;;;;;;;2.80;1.30;;;16.60;95.60;;;17.13;51.19;99793.09;4876202;28;100726;-61
2021/05/16 01:14:40;;;;;;;10.47;2.90;;;16.60;96.50;;;17.08;50.74;99789.94;4870324;28;98380;-53
2021/05/16 01:17:06;;;;;;;11.87;3.03;;;16.60;95.80;;;17.08;50.30;99796.13;4861832;28;98741;-55
2021/05/16 01:19:34;;;;;;;10.20;2.37;;;16.60;95.10;;;17.04;50.57;99797.31;4869259;28;98713;-57
2021/05/16 01:22:01;;;;;;;9.47;2.47;;;16.60;95.90;;;17.05;50.63;99796.34;4881012;28;99643;-54
2021/05/16 01:24:29;;;;;;;9.00;2.93;;;16.60;95.70;;;17.10;50.61;99796.00;4887044;28;97852;-49
2021/05/16 01:26:55;;;;;;;8.17;2.23;;;16.60;95.90;;;17.04;51.01;99793.78;4878846;28;97913;-57
2021/05/16 01:29:23;;;;;;;7.43;2.03;;;16.60;96.20;;;17.13;50.52;99798.44;4888851;28;98305;-57
2021/05/16 01:31:49;;;;;;;13.53;3.23;;;16.60;96.10;;;17.15;50.00;99801.81;4877484;28;98287;-57
2021/05/16 01:34:16;;;;;;;11.67;2.97;;;16.70;95.50;;;17.17;48.29;99802.56;4870331;28;98238;-57
2021/05/16 01:36:42;;;;;;;9.07;2.23;;;16.80;95.00;;;17.19;48.63;99808.59;4897900;28;99250;-58
2021/05/16 01:39:12;;;;;;;4.27;1.70;;;16.70;95.20;;;17.26;50.53;99807.19;4875566;28;99714;-60
2021/05/16 01:41:39;;;;;;;9.47;2.33;;;16.70;96.00;;;17.25;50.59;99800.16;4873455;28;102553;-56
2021/05/16 01:44:07;;;;;;;9.13;2.17;;;16.70;95.50;;;17.21;49.98;99806.66;4895529;28;98471;-53
2021/05/16 01:46:34;;;;;;;10.77;2.87;;;16.70;95.50;;;17.28;50.74;99807.91;4887394;28;98787;-55
2021/05/16 01:48:59;;;;;;;3.57;1.10;;;16.70;95.90;;;17.33;50.65;99799.56;4894185;28;99638;-59
2021/05/16 01:51:25;;;;;;;11.20;2.50;;;16.80;96.00;;;17.34;49.98;99812.75;4874869;28;98044;-53
2021/05/16 01:53:52;;;;;;;10.63;3.10;;;16.80;95.50;;;17.33;49.10;99802.22;4878167;28;98027;-54
2021/05/16 01:56:28;;;;;;;10.10;2.80;;;16.80;94.70;;;17.35;49.91;99811.78;4869672;28;98529;-51
2021/05/16 01:58:57;;;;;;;7.37;2.80;;;16.80;95.20;;;17.33;50.40;99804.88;4897689;28;98230;-56
2021/05/16 02:01:24;;;;;;;11.07;2.97;;;16.70;96.30;;;17.32;50.31;99806.72;4873765;28;99301;-59
2021/05/16 02:03:51;;;;;;;2.23;0.80;;;16.70;95.60;;;17.37;50.49;99807.22;4890753;28;98933;-51
2021/05/16 02:06:18;;;;;;;4.60;1.30;;;16.80;96.70;;;17.38;50.70;99814.25;4871633;28;99727;-59
2021/05/16 02:08:45;;;;;;;9.33;2.73;;;16.80;96.50;;;17.37;50.10;99807.22;4874327;28;98031;-53
2021/05/16 02:11:11;;;;;;;11.03;2.90;;;16.80;95.60;;;17.29;47.75;99808.75;4875098;28;100677;-51
2021/05/16 02:13:41;;;;;;;11.43;2.50;;;16.80;94.80;;;17.24;50.29;99801.13;4869048;28;97724;-58
2021/05/16 02:16:10;;;;;;;7.63;2.10;;;16.70;95.00;;;17.22;49.98;99803.06;4890388;28;98028;-57
2021/05/16 02:18:36;;;;;;;13.23;3.03;;;16.60;95.10;;;17.24;50.56;99806.47;4870544;28;104781;-58
2021/05/16 02:21:03;;;;;;;4.07;1.40;;;16.70;95.90;;;17.22;nan;99806.59;4883339;28;99936;-56
2021/05/16 02:23:29;;;;;;;5.63;1.80;;;16.60;95.60;;;17.29;50.64;99804.28;4886236;28;97359;-57
2021/05/16 02:25:55;;;;;;;14.17;3.30;;;16.70;96.00;;;17.25;50.44;99809.00;4875192;28;98136;-57
2021/05/16 02:28:21;;;;;;;2.03;0.90;;;16.70;95.50;;;17.41;50.48;99800.69;4864700;28;102443;-52
2021/05/16 02:30:48;;;;;;;3.07;1.40;;;16.90;96.80;;;17.59;50.07;99806.38;4871411;28;99174;-54
2021/05/16 02:33:14;;;;;;;2.63;1.10;;;17.30;95.70;;;17.73;49.78;99800.84;4884468;28;97020;-58
2021/05/16 02:35:40;;;;;;;2.13;1.30;;;17.60;95.30;;;17.90;49.43;99810.19;4871882;28;98288;-58
2021/05/16 02:38:06;;;;;;;2.17;0.97;;;17.80;95.30;;;18.06;48.98;99804.47;4869713;28;97714;-53
2021/05/16 02:40:33;;;;;;;1.97;0.97;;;18.00;94.70;;;18.20;48.63;99804.22;4882388;28;99976;-60
2021/05/16 02:42:59;;;;;;;2.87;1.03;;;18.20;94.40;;;18.32;48.25;99805.06;4870094;28;96950;-58
2021/05/16 02:45:25;;;;;;;2.37;0.90;;;18.40;93.70;;;18.36;47.82;99809.16;4887306;28;97966;-59
2021/05/16 02:47:52;;;;;;;3.83;0.97;;;18.40;93.00;;;18.38;48.07;99797.41;4871590;28;97814;-53
2021/05/16 02:50:18;;;;;;;2.53;0.87;;;18.40;93.60;;;18.41;47.84;99804.31;4869614;28;99227;-60
2021/05/16 02:52:44;;;;;;;3.17;0.97;;;18.40;93.80;;;18.44;47.72;99798.72;4868069;28;100647;-55
2021/05/16 02:55:11;;;;;;;1.67;0.97;;;18.40;93.70;;;18.49;47.83;99796.50;4872973;28;98251;-60
2021/05/16 02:57:36;;;;;;;2.60;1.13;;;18.50;93.80;;;18.42;47.65;99806.00;4867899;28;102602;-60
2021/05/16 03:00:07;;;;;;;2.07;0.97;;;18.30;92.10;;;18.34;48.02;99795.94;4891753;28;98574;-55
2021/05/16 03:02:33;;;;;;;2.63;0.87;;;18.20;94.00;;;18.36;47.98;99796.66;4867846;28;98326;-56
2021/05/16 03:04:59;;;;;;;1.87;1.00;;;18.20;93.70;;;18.37;48.08;99793.03;4875043;28;98184;-58
2021/05/16 03:07:25;;;;;;;1.90;1.00;;;18.20;94.00;;;18.39;47.93;99791.09;4885745;28;99112;-58
2021/05/16 03:09:51;;;;;;;1.87;0.90;;;18.30;93.00;;;18.40;48.11;99797.28;4871502;28;98610;-52
2021/05/16 03:12:17;;;;;;;2.23;1.10;;;18.30;93.70;;;18.35;47.98;99794.13;4870019;28;97779;-56
2021/05/16 03:14:43;;;;;;;2.70;1.00;;;18.20;93.20;;;18.37;48.10;99797.50;4872255;28;99561;-56
2021/05/16 03:17:08;;;;;;;2.67;1.23;;;18.20;94.00;;;18.39;47.80;99795.59;4859468;28;98424;-52
2021/05/16 03:19:34;;;;;;;2.37;0.90;;;18.20;92.40;;;18.42;47.97;99795.31;4869341;28;97516;-57
2021/05/16 03:22:01;;;;;;;2.70;1.10;;;18.30;93.80;;;18.49;47.73;99793.84;4858807;28;97335;-59
2021/05/16 03:24:28;;;;;;;2.97;1.07;;;18.40;93.70;;;18.54;47.76;99796.16;4879333;28;99348;-57
2021/05/16 03:26:54;;;;;;;2.67;1.23;;;18.50;93.40;;;18.60;47.39;99791.13;4870554;28;98332;-56
2021/05/16 03:29:19;;;;;;;1.83;1.20;;;18.60;93.30;;;18.63;47.36;99803.38;4877876;28;97744;-52
2021/05/16 03:31:45;;;;;;;4.53;2.00;;;18.60;92.90;;;18.54;47.50;99794.31;4892165;28;98159;-56
2021/05/16 03:34:11;;;;;;;2.70;1.10;;;18.40;91.70;;;18.57;47.49;99802.09;4893394;28;97460;-54
2021/05/16 03:36:37;;;;;;;3.33;1.27;;;18.40;93.50;;;18.53;47.50;99795.31;4890344;28;103219;-58
2021/05/16 03:39:05;;;;;;;4.57;1.67;;;18.40;93.00;;;18.53;47.15;99797.97;4888701;28;100343;-57
2021/05/16 03:41:31;;;;;;;2.77;1.13;;;18.40;91.80;;;18.51;47.49;99799.91;4895745;28;97192;-50
2021/05/16 03:43:57;;;;;;;1.40;0.67;;;18.40;93.00;;;18.55;47.58;99789.84;4913263;28;99550;-55
2021/05/16 03:46:23;;;;;;;2.30;1.20;;;18.50;93.40;;;18.59;47.61;99791.28;4897241;28;120192;-56
2021/05/16 03:48:48;;;;;;;1.73;0.83;;;18.50;93.10;;;18.64;47.43;99789.94;4898082;28;97397;-47
2021/05/16 03:51:14;;;;;;;2.53;1.00;;;18.60;93.20;;;18.70;47.20;99800.13;4884423;28;113337;-52
2021/05/16 03:53:40;;;;;;;1.97;0.83;;;18.70;92.80;;;18.72;46.99;99800.84;4913155;28;97385;-54
2021/05/16 03:56:09;;;;;;;2.77;0.80;;;18.80;92.90;;;18.74;46.98;99803.38;4910023;28;97367;-52
2021/05/16 03:58:36;;;;;;;0.90;0.67;;;18.80;92.50;;;18.71;46.98;99807.16;4895042;28;97140;-58
2021/05/16 04:01:03;;;;;;;1.50;0.80;;;18.70;92.90;;;18.69;46.97;99802.94;4895616;28;97116;-50
2021/05/16 04:03:29;;;;;;;5.03;1.53;;;18.60;92.90;;;18.65;46.96;99807.66;4892749;28;96902;-49
2021/05/16 04:05:55;;;;;;;1.13;0.80;;;18.70;91.60;;;18.66;46.97;99809.38;4885308;28;117912;-47
2021/05/16 04:08:21;;;;;;;2.43;1.07;;;18.60;93.00;;;18.70;47.06;99804.63;4909226;28;97207;-51
2021/05/16 04:10:46;;;;;;;2.67;1.30;;;18.70;92.80;;;18.68;47.03;99807.44;4892983;28;99782;-52
2021/05/16 04:13:12;;;;;;;1.97;0.90;;;18.60;92.40;;;18.65;47.13;99807.66;4905931;28;101226;-58
2021/05/16 04:15:38;;;;;;;1.93;0.60;;;18.60;92.60;;;18.65;47.23;99807.66;4891696;28;105413;-49
2021/05/16 04:18:04;;;;;;;1.27;0.90;;;18.60;93.10;;;18.69;47.08;99802.94;4896344;28;100093;-53
2021/05/16 04:20:31;;;;;;;1.83;0.77;;;18.70;93.40;;;18.70;47.20;99805.47;4891650;28;97092;-54
2021/05/16 04:22:59;;;;;;;2.33;1.20;;;18.70;92.90;;;18.71;47.09;99812.50;4912086;28;97387;-57
2021/05/16 04:25:27;;;;;;;2.23;1.00;;;18.70;91.90;;;18.73;47.02;99810.56;4891875;28;99954;-57
2021/05/16 04:27:54;;;;;;;2.90;1.20;;;18.70;92.80;;;18.77;46.94;99810.28;4893534;28;97216;-56
2021/05/16 04:30:21;;;;;;;2.33;1.10;;;18.80;92.80;;;18.78;46.04;99814.66;4892042;28;97756;-57
2021/05/16 04:32:46;;;;;;;1.97;1.17;;;18.80;91.70;;;18.75;47.02;99817.59;4895757;28;100540;-51
2021/05/16 04:35:13;;;;;;;1.13;0.67;;;18.70;92.40;;;18.78;47.01;99822.69;4880286;28;99559;-57
2021/05/16 04:37:39;;;;;;;1.97;0.90;;;18.80;92.70;;;18.83;46.76;99812.47;4889481;28;109960;-52
2021/05/16 04:40:06;;;;;;;2.90;0.87;;;18.80;92.60;;;18.84;46.71;99816.84;4884426;28;96788;-52
2021/05/16 04:42:32;;;;;;;2.87;0.70;;;18.80;92.50;;;18.86;46.74;99815.72;4905278;28;101120;-56
2021/05/16 04:44:58;;;;;;;1.83;0.83;;;18.90;92.40;;;18.89;46.77;99809.28;4913589;28;99100;-52
2021/05/16 04:47:25;;;;;;;0.73;0.60;;;19.00;92.40;;;18.92;46.45;99809.88;4886961;28;98719;-47
2021/05/16 04:49:50;;;;;;;0.97;0.60;;;19.00;92.20;;;18.96;46.66;99813.16;4917961;28;97516;-55
2021/05/16 04:52:16;;;;;;;2.33;0.93;;;19.10;92.20;;;18.98;46.33;99816.53;4891231;28;98897;-60
2021/05/16 04:54:42;;;;;;;2.20;0.83;;;19.10;91.90;;;19.00;46.46;99817.25;4882074;28;98509;-47
2021/05/16 04:57:08;;;;;;;1.13;0.70;;;19.10;92.10;;;19.03;46.30;99811.66;4893296;28;107224;-50
2021/05/16 04:59:34;;;;;;;2.30;0.80;;;19.10;92.00;;;19.06;46.39;99818.56;4895826;28;96951;-52
2021/05/16 05:02:00;;;;;;;1.10;0.63;;;19.20;92.00;;;19.08;46.37;99814.78;4895778;28;97153;-56
2021/05/16 05:04:26;;;;;;;1.70;0.90;;;19.20;91.90;;;19.09;46.27;99821.81;4894145;28;97613;-54
2021/05/16 05:06:52;;;;;;;3.07;1.10;;;19.20;91.80;;;19.09;46.06;99819.13;4895658;28;97702;-50
2021/05/16 05:09:18;;;;;;;4.17;1.70;;;19.20;91.40;;;19.05;46.11;99828.41;4892021;28;97224;-55
2021/05/16 05:11:44;;;;;;;2.10;1.20;;;19.10;91.00;;;19.06;46.29;99816.72;4899687;28;97223;-58
2021/05/16 05:14:10;;;;;;;1.93;1.00;;;19.10;92.00;;;19.05;46.09;99814.19;4911510;28;98401;-49
2021/05/16 05:16:35;;;;;;;2.27;0.70;;;19.10;91.60;;;19.05;46.38;99819.53;4878808;28;98428;-54
2021/05/16 05:19:01;;;;;;;3.13;1.00;;;19.10;91.80;;;19.06;46.08;99822.06;4894388;28;98411;-56
2021/05/16 05:21:27;;;;;;;2.67;0.90;;;19.10;91.90;;;19.05;46.34;99820.38;4909914;28;98618;-50
2021/05/16 05:23:53;;;;;;;2.17;0.90;;;19.10;91.90;;;19.06;46.29;99816.72;4891893;28;99978;-58
2021/05/16 05:26:19;;;;;;;1.30;0.60;;;19.10;91.90;;;19.02;45.97;99826.00;4897022;28;105362;-54
2021/05/16 05:28:44;;;;;;;3.30;1.20;;;19.00;91.40;;;19.02;46.18;99821.50;4911062;28;97569;-47
2021/05/16 05:31:10;;;;;;;1.60;0.90;;;19.00;91.90;;;19.05;46.31;99820.38;4898936;28;97096;-51
2021/05/16 05:33:36;;;;;;;1.40;0.90;;;19.10;91.80;;;19.05;46.19;99820.38;4909856;28;99447;-52
2021/05/16 05:36:02;;;;;;;1.37;0.80;;;19.10;91.90;;;18.97;46.17;99820.19;4916044;28;99452;-50
2021/05/16 05:38:28;;;;;;;2.00;0.90;;;19.00;91.90;;;18.91;46.35;99821.53;4904374;28;97200;-53
2021/05/16 05:40:54;;;;;;;3.37;1.30;;;18.90;91.80;;;18.86;46.59;99815.72;4895707;28;106570;-54
2021/05/16 05:43:20;;;;;;;1.73;0.70;;;18.80;92.20;;;18.89;46.54;99819.97;4908189;28;97614;-51
2021/05/16 05:45:46;;;;;;;2.47;1.13;;;18.90;92.10;;;18.89;46.39;99815.47;4892651;28;101709;-55
2021/05/16 05:48:11;;;;;;;2.00;0.80;;;18.90;91.90;;;18.89;46.58;99822.63;4907986;28;99987;-49
2021/05/16 05:50:37;;;;;;;1.57;1.07;;;18.90;92.10;;;18.90;46.56;99816.31;4891089;28;97001;-54
2021/05/16 05:53:03;;;;;;;6.47;2.30;;;18.90;92.10;;;18.82;45.52;99816.97;4911558;28;97216;-52
2021/05/16 05:55:33;;;;;;;3.57;1.90;;;18.80;91.00;;;18.84;46.47;99811.50;4892386;28;99979;-47
2021/05/16 05:58:00;;;;;;;2.40;1.00;;;18.80;92.10;;;18.78;46.62;99817.34;4895249;28;97182;-48
2021/05/16 06:00:30;;;;;;;1.97;1.03;;;18.70;92.40;;;18.77;46.91;99821.81;4892215;28;97240;-53
2021/05/16 06:02:58;;;;;;;3.83;1.67;;;18.70;92.50;;;18.76;46.99;99814.78;4895712;28;98530;-47
2021/05/16 06:05:26;;;;;;;2.13;0.83;;;18.70;92.00;;;18.78;46.94;99820.00;4893462;28;97432;-52
2021/05/16 06:07:53;;;;;;;1.57;0.90;;;18.80;92.40;;;18.77;46.96;99831.66;4893178;28;97668;-51
2021/05/16 06:10:18;;;;;;;4.90;2.10;;;18.70;92.20;;;18.70;46.99;99826.84;4889210;28;97779;-53
2021/05/16 06:12:45;;;;;;;6.30;2.80;;;18.60;92.10;;;18.53;46.76;99835.34;4894378;28;97307;-54
2021/05/16 06:15:12;;;;;;;3.27;1.87;;;18.30;92.50;;;18.45;47.71;99832.44;4892442;28;99350;-49
2021/05/16 06:17:38;;;;;;;1.00;0.80;;;18.10;93.60;;;18.44;47.70;99828.09;4890105;28;97865;-53
2021/05/16 06:20:06;;;;;;;7.13;3.00;;;18.10;93.50;;;18.35;47.54;99829.66;4912245;28;97412;-53
2021/05/16 06:22:33;;;;;;;9.13;3.37;;;18.00;93.70;;;18.13;48.23;99833.22;4892426;28;101338;-52
2021/05/16 06:24:58;;;;;;;7.80;3.27;;;17.70;94.00;;;17.99;48.22;99835.31;4915339;28;97453;-56
2021/05/16 06:27:25;;;;;;;4.83;1.97;;;17.50;94.30;;;17.97;48.95;99838.09;4887277;28;99789;-56
2021/05/16 06:29:50;;;;;;;8.53;2.63;;;17.40;94.90;;;17.83;49.17;99843.66;4895750;28;97022;-58
2021/05/16 06:32:16;;;;;;;5.20;2.10;;;17.30;95.30;;;17.76;49.42;99845.09;4890019;28;99821;-56
2021/05/16 06:34:42;;;;;;;7.07;2.80;;;17.10;95.80;;;17.65;49.72;99850.38;4909462;28;97699;-48
2021/05/16 06:37:08;;;;;;;2.30;1.43;;;17.10;96.30;;;17.54;50.29;99856.56;4890417;28;97510;-49
2021/05/16 06:39:34;;;;;;;8.60;3.60;;;16.90;96.70;;;17.28;50.38;99860.38;4910462;28;97053;-59
2021/05/16 06:42:01;;;;;;;4.50;1.80;;;16.80;96.20;;;17.23;51.42;99858.06;4909007;28;99663;-49
2021/05/16 06:44:27;;;;;;;8.63;3.30;;;16.70;97.20;;;17.11;51.82;99864.31;4891312;28;99561;-57
2021/05/16 06:46:53;;;;;;;7.93;2.90;;;16.60;97.90;;;17.08;51.93;99864.56;4891769;28;97483;-47
2021/05/16 06:49:19;;;;;;;11.87;3.50;;;16.50;98.50;;;16.95;53.84;99864.63;4911036;28;97240;-49
2021/05/16 06:51:45;;;;;;;4.30;1.60;;;16.50;99.20;;;17.00;52.41;99872.25;4905409;28;97949;-51
2021/05/16 06:54:11;;;;;;;13.87;4.27;;;16.40;99.20;;;16.84;54.26;99877.88;4915404;28;96720;-51
2021/05/16 06:56:37;;;;;;;10.80;4.00;;;16.30;99.90;;;16.91;52.55;99871.94;4888152;28;100436;-54
2021/05/16 06:59:04;;;;;;;8.40;3.10;;;16.30;99.60;;;16.90;53.01;99872.91;4895537;28;96819;-52
2021/05/16 07:01:33;;;;;;;8.07;3.80;;;16.50;99.90;;;16.92;53.82;99868.34;4904748;28;98802;-53
2021/05/16 07:03:59;;;;;;;6.50;2.97;;;16.40;99.90;;;16.91;53.29;99869.28;4896990;28;99004;-53
2021/05/16 07:06:25;;;;;;;8.00;2.80;;;16.30;99.90;;;16.87;55.49;99867.84;4892120;28;108677;-56
2021/05/16 07:08:52;;;;;;;9.80;3.53;;;16.30;99.90;;;16.85;54.19;99875.09;4878579;28;96979;-51
2021/05/16 07:11:18;;;;;;;9.03;3.00;;;16.20;99.90;;;16.76;54.87;99870.44;4906406;28;98882;-47
2021/05/16 07:13:45;;;;;;;10.67;3.00;;;16.10;99.90;;;16.83;53.49;99866.38;4878454;28;98563;-48
2021/05/16 07:16:11;;;;;;;6.00;2.77;;;16.20;99.90;;;16.80;54.23;99871.06;4892834;28;96962;-51
2021/05/16 07:18:37;;;;;;;13.70;3.30;;;16.20;99.90;;;16.71;54.53;99874.41;4887655;28;98602;-47
2021/05/16 07:21:03;;;;;;;6.93;2.77;;;16.10;99.90;;;16.76;53.91;99875.75;4908615;28;97443;-49
2021/05/16 07:23:28;;;;;;;9.20;3.27;;;16.00;99.90;;;16.69;56.30;99879.00;4884353;28;97449;-48
2021/05/16 07:25:54;;;;;;;6.93;2.43;;;16.00;99.90;;;16.74;53.37;99888.34;4910228;28;104826;-49
2021/05/16 07:28:21;;;;;;;6.00;2.17;;;16.10;99.90;;;16.73;53.60;99881.31;4888634;28;97368;-49
2021/05/16 07:30:47;;;;;;;4.63;1.70;;;16.10;99.90;;;16.74;54.97;99883.00;4892073;28;100085;-49
2021/05/16 07:33:12;;;;;;;9.27;2.50;;;16.10;99.90;;;16.73;55.46;99881.31;4906251;28;98278;-58
2021/05/16 07:35:38;;;;;;;11.20;2.93;;;16.20;99.90;;;16.83;53.33;99871.69;4893712;28;97720;-45
2021/05/16 07:38:04;;;;;;;6.37;2.30;;;16.30;99.90;;;16.83;54.86;99879.69;4894335;28;96811;-49
2021/05/16 07:40:30;;;;;;;7.33;2.23;;;16.30;99.90;;;16.82;55.21;99875.31;4891521;28;97847;-50
2021/05/16 07:42:56;;;;;;;10.13;3.03;;;16.30;99.90;;;16.90;53.42;99872.91;4910592;28;99159;-55
2021/05/16 07:45:23;;;;;;;4.47;2.03;;;16.30;99.90;;;16.90;52.90;99878.25;4886739;28;96731;-52
2021/05/16 07:47:49;;;;;;;4.90;2.27;;;16.30;99.90;;;16.91;53.11;99885.28;4913883;28;97559;-53
2021/05/16 07:50:16;;;;;;;9.60;2.33;;;16.30;99.90;;;16.98;53.13;99891.00;4903415;28;97093;-51
2021/05/16 07:52:41;;;;;;;7.13;2.33;;;16.40;99.90;;;16.91;55.17;99879.09;4912668;28;99894;-53
2021/05/16 07:55:09;;;;;;;7.20;2.23;;;16.40;99.90;;;16.84;53.70;99878.72;4907706;28;97331;-54
2021/05/16 07:57:35;;;;;;;1.63;1.07;;;16.30;99.90;;;16.90;52.85;99883.56;4890560;28;97704;-54
2021/05/16 08:00:03;;;;;;;6.03;2.37;;;16.30;99.90;;;16.76;55.43;99885.56;4907311;28;98806;-50
2021/05/16 08:02:29;;;;;;;3.17;1.50;;;16.20;99.90;;;16.86;53.16;99884.78;4887468;28;97999;-52
2021/05/16 08:04:55;;;;;;;6.40;2.10;;;16.30;99.90;;;16.88;53.41;99885.50;4910104;28;97343;-51
2021/05/16 08:07:21;;;;;;;6.33;2.13;;;16.40;99.90;;;16.94;53.30;99877.09;4888393;28;96970;-52
2021/05/16 08:09:46;;;;;;;6.93;2.50;;;16.40;99.90;;;16.92;53.49;99881.69;4891453;28;97621;-53
2021/05/16 08:12:12;;;;;;;4.37;2.27;;;16.40;99.90;;;16.78;54.45;99889.84;4893283;28;97305;-59
2021/05/16 08:14:38;;;;;;;6.20;1.70;;;16.30;99.90;;;16.89;53.39;99881.88;4911652;28;97743;-52
2021/05/16 08:17:04;;;;;;;3.77;1.80;;;16.40;99.90;;;16.92;53.05;99887.00;4894041;28;97519;-50
2021/05/16 08:19:30;;;;;;;4.53;1.83;;;16.40;99.90;;;16.82;55.83;99896.63;4897384;28;97229;-54
2021/05/16 08:21:56;;;;;;;3.87;1.40;;;16.30;99.90;;;16.74;55.16;99888.34;4863231;28;97239;-52
2021/05/16 08:24:22;;;;;;;5.90;1.60;;;16.20;99.90;;;16.66;54.02;99896.03;4896794;28;98938;-52
2021/05/16 08:26:48;;;;;;;5.93;2.43;;;16.10;99.90;;;16.77;53.61;99885.44;4883068;28;101486;-50
2021/05/16 08:29:14;;;;;;;3.07;1.10;;;16.20;99.90;;;16.81;53.97;99889.59;4914164;28;99824;-51
2021/05/16 08:31:40;;;;;;;3.50;1.73;;;16.40;99.90;;;16.79;54.39;99896.84;4910854;28;97408;-53
2021/05/16 08:34:07;;;;;;;2.70;1.30;;;16.30;99.90;;;16.80;54.85;99895.91;4897493;28;96861;-48
2021/05/16 08:36:39;;;;;;;4.10;1.50;;;16.40;99.90;;;16.82;56.00;99896.63;4891268;28;98953;-48
2021/05/16 08:39:07;;;;;;;3.07;1.20;;;16.40;99.90;;;16.77;53.53;99892.56;4914976;28;99482;-50
2021/05/16 08:41:35;;;;;;;3.73;1.50;;;16.30;99.90;;;16.83;53.42;99893.00;4889892;28;97365;-50
2021/05/16 08:44:03;;;;;;;2.10;0.87;;;16.40;99.90;;;16.95;52.74;99881.44;4899814;28;96793;-53
2021/05/16 08:46:29;;;;;;;2.80;1.00;;;16.50;99.90;;;16.99;53.08;99881.22;4909037;28;96830;-47
2021/05/16 08:48:56;;;;;;;4.17;1.47;;;16.70;99.90;;;17.02;52.97;99886.31;4901021;28;97223;-51
2021/05/16 08:51:22;;;;;;;1.73;1.37;;;16.60;99.90;;;16.97;52.78;99877.81;4893144;28;104281;-47
2021/05/16 08:53:49;;;;;;;4.23;1.60;;;16.60;99.90;;;17.01;53.35;99879.28;4916051;28;96875;-52
2021/05/16 08:56:14;;;;;;;4.23;1.63;;;16.60;99.90;;;17.05;52.92;99870.09;4907448;28;98016;-52
2021/05/16 08:58:40;;;;;;;3.90;1.13;;;16.70;99.90;;;16.99;53.13;99881.22;4916321;28;97626;-52
2021/05/16 09:01:23;;;;;;;2.97;1.00;;;16.70;99.90;;;16.86;53.86;99876.78;4897362;28;98730;-47
2021/05/16 09:03:51;;;;;;;2.33;1.40;;;16.50;99.90;;;16.94;53.46;99871.75;4906757;28;97018;-52
2021/05/16 09:06:17;;;;;;;1.73;0.80;;;16.60;99.90;;;17.10;53.95;99873.28;4894536;28;97465;-54
2021/05/16 09:08:44;;;;;;;3.87;1.87;;;16.80;99.90;;;16.89;53.90;99865.91;4897057;28;97638;-50
2021/05/16 09:11:10;;;;;;;3.33;1.40;;;16.60;99.90;;;16.95;52.77;99870.78;4896874;28;97090;-49
2021/05/16 09:13:46;;;;;;;5.07;1.50;;;16.70;99.80;;;17.10;53.50;99867.94;4891126;28;97050;-51
2021/05/16 09:16:16;;;;;;;4.87;1.70;;;16.80;99.90;;;17.30;51.84;99864.63;4894871;28;99522;-49
2021/05/16 09:18:54;;;;;;;2.57;1.03;;;17.00;99.00;;;17.39;53.30;99858.59;4896734;28;103307;-51
2021/05/16 09:21:31;;;;;;;7.20;2.03;;;17.20;99.40;;;17.36;51.82;99858.84;4908426;28;96849;-49
2021/05/16 09:24:03;;;;;;;5.27;2.00;;;17.20;98.50;;;17.31;53.21;99866.31;4911522;28;97641;-50
2021/05/16 09:26:30;;;;;;;5.93;2.07;;;17.10;99.80;;;17.32;52.68;99856.50;4907815;28;97299;-52
2021/05/16 09:29:44;;;;;;;7.03;1.70;;;17.10;99.40;;;17.20;52.82;99858.28;4893142;28;97738;-50
2021/05/16 09:32:10;;;;;;;4.57;2.20;;;17.00;99.50;;;17.01;53.66;99857.97;4896146;28;100077;-50
2021/05/16 09:34:40;;;;;;;6.03;2.50;;;16.70;99.90;;;17.07;53.69;99854.81;4889658;28;97365;-47
2021/05/16 09:37:10;;;;;;;4.30;1.70;;;16.80;99.90;;;17.11;52.61;99858.97;4916948;28;97102;-51
2021/05/16 09:39:37;;;;;;;5.50;1.90;;;16.80;99.80;;;16.97;53.82;99845.84;4903142;28;98119;-52
2021/05/16 09:42:13;;;;;;;2.60;0.80;;;16.70;99.90;;;17.14;52.29;99842.75;4899495;28;97717;-49
2021/05/16 09:44:54;;;;;;;4.53;1.73;;;16.80;99.60;;;17.21;52.15;99838.66;4891139;28;99595;-49
2021/05/16 09:47:27;;;;;;;6.33;2.30;;;16.90;99.70;;;17.30;54.00;99831.78;4893669;28;97734;-50
2021/05/16 09:50:00;;;;;;;5.77;2.30;;;17.10;99.90;;;17.18;51.88;99828.22;4908122;28;97779;-47
2021/05/16 09:52:29;;;;;;;4.90;1.60;;;17.00;98.70;;;17.18;52.99;99830.91;4910863;28;97570;-51
2021/05/16 09:55:08;;;;;;;5.03;1.47;;;17.00;99.40;;;17.17;52.36;99839.84;4895598;28;97464;-49
2021/05/16 09:57:40;;;;;;;6.63;2.00;;;16.90;99.10;;;17.26;51.01;99833.84;4893504;28;97572;-53
2021/05/16 10:00:11;;;;;;;6.77;2.03;;;17.10;98.00;;;17.30;50.51;99821.97;4911067;28;97700;-53
2021/05/16 10:02:38;;;;;;;4.27;1.60;;;17.10;97.40;;;17.32;51.44;99828.03;4891576;28;105661;-52
2021/05/16 10:05:07;;;;;;;7.07;2.37;;;17.10;98.00;;;17.42;53.55;99830.84;4860051;28;98340;-52
2021/05/16 10:07:34;;;;;;;3.97;2.00;;;17.30;99.40;;;17.42;52.49;99829.03;4860347;28;99902;-54
2021/05/16 10:10:00;;;;;;;5.73;1.73;;;17.20;99.20;;;17.58;51.07;99830.50;4874219;28;99212;-52
2021/05/16 10:12:27;;;;;;;1.40;1.07;;;17.40;98.10;;;17.62;50.59;99829.28;4886869;28;101227;-49
2021/05/16 10:15:13;;;;;;;4.47;1.60;;;17.40;97.70;;;17.67;51.42;99819.13;4870183;28;97575;-52
2021/05/16 10:17:43;;;;;;;4.60;1.70;;;17.40;98.30;;;17.73;49.06;99818.69;4875449;28;98093;-51